sensor_id;sensor_type;location;lat;lon;timestamp;P1;durP1;ratioP1;P2;durP2;ratioP2
27833;SDS011;15200;50.570;7.244;2023-05-14T00:02:10;14.03;;;10.18;;
27833;SDS011;15200;50.570;7.244;2023-05-14T00:04:38;12.25;;;9.63;;
27833;SDS011;15200;50.570;7.244;2023-05-14T00:07:06;11.18;;;9.88;;
27833;SDS011;15200;50.570;7.244;2023-05-14T00:09:34;10.63;;;9.50;;
27833;SDS011;15200;50.570;7.244;2023-05-14T00:12:04;17.00;;;9.88;;
27833;SDS011;15200;50.570;7.244;2023-05-14T00:14:32;17.02;;;10.80;;
27833;SDS011;15200;50.570;7.244;2023-05-14T00:17:01;25.12;;;11.50;;
27833;SDS011;15200;50.570;7.244;2023-05-14T00:19:30;14.58;;;11.25;;
27833;SDS011;15200;50.570;7.244;2023-05-14T00:22:00;17.02;;;12.70;;
27833;SDS011;15200;50.570;7.244;2023-05-14T00:24:30;17.23;;;13.13;;
27833;SDS011;15200;50.570;7.244;2023-05-14T00:26:57;14.98;;;12.93;;
27833;SDS011;15200;50.570;7.244;2023-05-14T00:29:27;13.93;;;11.28;;
27833;SDS011;15200;50.570;7.244;2023-05-14T00:31:54;12.98;;;11.05;;
27833;SDS011;15200;50.570;7.244;2023-05-14T00:34:22;13.25;;;10.98;;
27833;SDS011;15200;50.570;7.244;2023-05-14T00:36:51;12.63;;;11.20;;
27833;SDS011;15200;50.570;7.244;2023-05-14T00:39:20;13.68;;;12.25;;
27833;SDS011;15200;50.570;7.244;2023-05-14T00:41:48;16.62;;;11.70;;
27833;SDS011;15200;50.570;7.244;2023-05-14T00:44:17;13.45;;;10.93;;
27833;SDS011;15200;50.570;7.244;2023-05-14T00:46:46;13.28;;;10.55;;
27833;SDS011;15200;50.570;7.244;2023-05-14T00:49:14;16.40;;;9.80;;
27833;SDS011;15200;50.570;7.244;2023-05-14T00:51:42;13.45;;;8.85;;
27833;SDS011;15200;50.570;7.244;2023-05-14T00:54:15;11.12;;;8.90;;
27833;SDS011;15200;50.570;7.244;2023-05-14T00:56:45;9.38;;;8.15;;
27833;SDS011;15200;50.570;7.244;2023-05-14T00:59:14;10.80;;;8.78;;
27833;SDS011;15200;50.570;7.244;2023-05-14T01:01:42;14.87;;;8.85;;
27833;SDS011;15200;50.570;7.244;2023-05-14T01:04:12;8.98;;;7.85;;
27833;SDS011;15200;50.570;7.244;2023-05-14T01:06:48;12.65;;;7.80;;
27833;SDS011;15200;50.570;7.244;2023-05-14T01:09:35;9.58;;;7.85;;
27833;SDS011;15200;50.570;7.244;2023-05-14T01:12:20;7.08;;;6.28;;
27833;SDS011;15200;50.570;7.244;2023-05-14T01:15:00;13.88;;;7.45;;
27833;SDS011;15200;50.570;7.244;2023-05-14T01:17:27;11.33;;;6.83;;
27833;SDS011;15200;50.570;7.244;2023-05-14T01:19:57;8.58;;;5.53;;
27833;SDS011;15200;50.570;7.244;2023-05-14T01:22:26;10.80;;;6.72;;
27833;SDS011;15200;50.570;7.244;2023-05-14T01:24:53;7.33;;;5.97;;
27833;SDS011;15200;50.570;7.244;2023-05-14T01:27:30;9.68;;;6.58;;
27833;SDS011;15200;50.570;7.244;2023-05-14T01:30:02;8.23;;;6.70;;
27833;SDS011;15200;50.570;7.244;2023-05-14T01:32:26;18.30;;;8.43;;
27833;SDS011;15200;50.570;7.244;2023-05-14T01:34:55;16.50;;;7.78;;
27833;SDS011;15200;50.570;7.244;2023-05-14T01:37:26;17.23;;;8.38;;
27833;SDS011;15200;50.570;7.244;2023-05-14T01:39:54;20.68;;;8.60;;
27833;SDS011;15200;50.570;7.244;2023-05-14T01:42:24;66.05;;;9.78;;
27833;SDS011;15200;50.570;7.244;2023-05-14T01:44:53;24.00;;;10.15;;
27833;SDS011;15200;50.570;7.244;2023-05-14T01:47:20;209.40;;;15.83;;
27833;SDS011;15200;50.570;7.244;2023-05-14T01:49:50;46.58;;;12.18;;
27833;SDS011;15200;50.570;7.244;2023-05-14T01:52:18;48.02;;;10.55;;
27833;SDS011;15200;50.570;7.244;2023-05-14T01:54:48;29.52;;;10.63;;
27833;SDS011;15200;50.570;7.244;2023-05-14T01:57:15;99.87;;;12.20;;
27833;SDS011;15200;50.570;7.244;2023-05-14T01:59:43;69.77;;;10.68;;
27833;SDS011;15200;50.570;7.244;2023-05-14T02:02:10;11.22;;;8.60;;
27833;SDS011;15200;50.570;7.244;2023-05-14T02:04:38;29.42;;;9.15;;
27833;SDS011;15200;50.570;7.244;2023-05-14T02:07:06;16.42;;;8.45;;
27833;SDS011;15200;50.570;7.244;2023-05-14T02:09:34;31.75;;;8.30;;
27833;SDS011;15200;50.570;7.244;2023-05-14T02:12:02;27.17;;;7.85;;
27833;SDS011;15200;50.570;7.244;2023-05-14T02:14:29;13.88;;;7.35;;
27833;SDS011;15200;50.570;7.244;2023-05-14T02:16:57;18.48;;;7.50;;
27833;SDS011;15200;50.570;7.244;2023-05-14T02:19:25;25.95;;;8.40;;
27833;SDS011;15200;50.570;7.244;2023-05-14T02:21:54;22.77;;;9.18;;
27833;SDS011;15200;50.570;7.244;2023-05-14T02:24:23;36.15;;;9.33;;
27833;SDS011;15200;50.570;7.244;2023-05-14T02:26:51;27.82;;;8.85;;
27833;SDS011;15200;50.570;7.244;2023-05-14T02:29:19;101.22;;;11.90;;
27833;SDS011;15200;50.570;7.244;2023-05-14T02:31:46;20.65;;;9.23;;
27833;SDS011;15200;50.570;7.244;2023-05-14T02:34:14;32.70;;;9.78;;
27833;SDS011;15200;50.570;7.244;2023-05-14T02:36:43;33.05;;;9.25;;
27833;SDS011;15200;50.570;7.244;2023-05-14T02:39:12;45.90;;;9.18;;
27833;SDS011;15200;50.570;7.244;2023-05-14T02:41:39;21.55;;;8.55;;
27833;SDS011;15200;50.570;7.244;2023-05-14T02:44:07;74.90;;;10.58;;
27833;SDS011;15200;50.570;7.244;2023-05-14T02:46:35;93.22;;;10.20;;
27833;SDS011;15200;50.570;7.244;2023-05-14T02:49:02;52.78;;;10.35;;
27833;SDS011;15200;50.570;7.244;2023-05-14T02:51:30;74.50;;;11.38;;
27833;SDS011;15200;50.570;7.244;2023-05-14T02:53:58;72.87;;;11.65;;
27833;SDS011;15200;50.570;7.244;2023-05-14T02:56:26;130.20;;;12.23;;
27833;SDS011;15200;50.570;7.244;2023-05-14T02:58:54;88.72;;;10.30;;
27833;SDS011;15200;50.570;7.244;2023-05-14T03:01:21;28.70;;;9.80;;
27833;SDS011;15200;50.570;7.244;2023-05-14T03:03:49;46.85;;;9.98;;
27833;SDS011;15200;50.570;7.244;2023-05-14T03:06:17;45.60;;;9.58;;
27833;SDS011;15200;50.570;7.244;2023-05-14T03:08:45;47.45;;;10.43;;
27833;SDS011;15200;50.570;7.244;2023-05-14T03:11:12;96.57;;;11.93;;
27833;SDS011;15200;50.570;7.244;2023-05-14T03:13:40;75.08;;;11.63;;
27833;SDS011;15200;50.570;7.244;2023-05-14T03:16:09;185.75;;;13.53;;
27833;SDS011;15200;50.570;7.244;2023-05-14T03:18:37;79.70;;;10.53;;
27833;SDS011;15200;50.570;7.244;2023-05-14T03:21:05;9.38;;;8.23;;
27833;SDS011;15200;50.570;7.244;2023-05-14T03:23:34;25.60;;;8.70;;
27833;SDS011;15200;50.570;7.244;2023-05-14T03:26:01;33.55;;;9.23;;
27833;SDS011;15200;50.570;7.244;2023-05-14T03:28:30;18.65;;;7.87;;
27833;SDS011;15200;50.570;7.244;2023-05-14T03:30:58;9.95;;;7.50;;
27833;SDS011;15200;50.570;7.244;2023-05-14T03:33:26;50.78;;;9.23;;
27833;SDS011;15200;50.570;7.244;2023-05-14T03:35:54;43.42;;;8.18;;
27833;SDS011;15200;50.570;7.244;2023-05-14T03:38:22;59.60;;;8.98;;
27833;SDS011;15200;50.570;7.244;2023-05-14T03:40:49;74.58;;;9.23;;
27833;SDS011;15200;50.570;7.244;2023-05-14T03:43:17;34.08;;;8.65;;
27833;SDS011;15200;50.570;7.244;2023-05-14T03:45:45;33.63;;;8.30;;
27833;SDS011;15200;50.570;7.244;2023-05-14T03:48:15;40.43;;;7.97;;
27833;SDS011;15200;50.570;7.244;2023-05-14T03:50:43;75.37;;;9.40;;
27833;SDS011;15200;50.570;7.244;2023-05-14T03:53:10;49.58;;;9.15;;
27833;SDS011;15200;50.570;7.244;2023-05-14T03:55:38;34.15;;;7.92;;
27833;SDS011;15200;50.570;7.244;2023-05-14T03:58:05;12.18;;;7.15;;
27833;SDS011;15200;50.570;7.244;2023-05-14T04:00:34;47.88;;;8.30;;
27833;SDS011;15200;50.570;7.244;2023-05-14T04:03:02;17.15;;;7.40;;
27833;SDS011;15200;50.570;7.244;2023-05-14T04:05:30;7.53;;;6.72;;
27833;SDS011;15200;50.570;7.244;2023-05-14T04:07:58;10.65;;;7.78;;
27833;SDS011;15200;50.570;7.244;2023-05-14T04:10:25;16.50;;;6.55;;
27833;SDS011;15200;50.570;7.244;2023-05-14T04:12:53;28.38;;;8.00;;
27833;SDS011;15200;50.570;7.244;2023-05-14T04:15:21;16.85;;;6.30;;
27833;SDS011;15200;50.570;7.244;2023-05-14T04:17:49;34.18;;;8.05;;
27833;SDS011;15200;50.570;7.244;2023-05-14T04:20:17;27.00;;;7.92;;
27833;SDS011;15200;50.570;7.244;2023-05-14T04:22:45;42.85;;;8.25;;
27833;SDS011;15200;50.570;7.244;2023-05-14T04:25:12;12.37;;;6.80;;
27833;SDS011;15200;50.570;7.244;2023-05-14T04:27:40;59.00;;;7.60;;
27833;SDS011;15200;50.570;7.244;2023-05-14T04:30:09;30.85;;;7.92;;
27833;SDS011;15200;50.570;7.244;2023-05-14T04:32:36;129.87;;;10.75;;
27833;SDS011;15200;50.570;7.244;2023-05-14T04:35:04;58.83;;;9.53;;
27833;SDS011;15200;50.570;7.244;2023-05-14T04:37:32;44.77;;;8.00;;
27833;SDS011;15200;50.570;7.244;2023-05-14T04:40:00;17.92;;;8.28;;
27833;SDS011;15200;50.570;7.244;2023-05-14T04:42:27;36.15;;;8.58;;
27833;SDS011;15200;50.570;7.244;2023-05-14T04:44:55;43.98;;;9.23;;
27833;SDS011;15200;50.570;7.244;2023-05-14T04:47:23;132.45;;;11.03;;
27833;SDS011;15200;50.570;7.244;2023-05-14T04:49:52;54.27;;;9.23;;
27833;SDS011;15200;50.570;7.244;2023-05-14T04:52:19;15.25;;;7.95;;
27833;SDS011;15200;50.570;7.244;2023-05-14T04:54:47;28.67;;;8.45;;
27833;SDS011;15200;50.570;7.244;2023-05-14T04:57:15;23.42;;;7.85;;
27833;SDS011;15200;50.570;7.244;2023-05-14T04:59:43;15.70;;;8.65;;
27833;SDS011;15200;50.570;7.244;2023-05-14T05:02:11;9.50;;;7.35;;
27833;SDS011;15200;50.570;7.244;2023-05-14T05:04:39;31.65;;;7.78;;
27833;SDS011;15200;50.570;7.244;2023-05-14T05:07:06;14.23;;;7.15;;
27833;SDS011;15200;50.570;7.244;2023-05-14T05:09:34;80.28;;;9.33;;
27833;SDS011;15200;50.570;7.244;2023-05-14T05:12:01;42.75;;;8.80;;
27833;SDS011;15200;50.570;7.244;2023-05-14T05:14:29;12.93;;;8.33;;
27833;SDS011;15200;50.570;7.244;2023-05-14T05:16:57;25.17;;;8.33;;
27833;SDS011;15200;50.570;7.244;2023-05-14T05:19:25;18.17;;;9.28;;
27833;SDS011;15200;50.570;7.244;2023-05-14T05:21:52;34.45;;;9.95;;
27833;SDS011;15200;50.570;7.244;2023-05-14T05:24:20;21.50;;;8.78;;
27833;SDS011;15200;50.570;7.244;2023-05-14T05:26:48;22.87;;;9.75;;
27833;SDS011;15200;50.570;7.244;2023-05-14T05:29:17;39.05;;;9.73;;
27833;SDS011;15200;50.570;7.244;2023-05-14T05:31:45;15.53;;;9.48;;
27833;SDS011;15200;50.570;7.244;2023-05-14T05:34:13;20.37;;;9.28;;
27833;SDS011;15200;50.570;7.244;2023-05-14T05:36:40;14.75;;;9.45;;
27833;SDS011;15200;50.570;7.244;2023-05-14T05:39:08;15.00;;;8.80;;
27833;SDS011;15200;50.570;7.244;2023-05-14T05:41:36;18.73;;;8.88;;
27833;SDS011;15200;50.570;7.244;2023-05-14T05:44:04;17.07;;;9.45;;
27833;SDS011;15200;50.570;7.244;2023-05-14T05:46:32;93.82;;;10.18;;
27833;SDS011;15200;50.570;7.244;2023-05-14T05:49:00;15.10;;;8.15;;
27833;SDS011;15200;50.570;7.244;2023-05-14T05:51:27;11.35;;;7.58;;
27833;SDS011;15200;50.570;7.244;2023-05-14T05:53:55;19.45;;;7.50;;
27833;SDS011;15200;50.570;7.244;2023-05-14T05:56:23;9.53;;;7.80;;
27833;SDS011;15200;50.570;7.244;2023-05-14T05:58:51;47.60;;;8.25;;
27833;SDS011;15200;50.570;7.244;2023-05-14T06:01:19;13.85;;;8.70;;
27833;SDS011;15200;50.570;7.244;2023-05-14T06:03:46;34.50;;;8.70;;
27833;SDS011;15200;50.570;7.244;2023-05-14T06:06:14;23.85;;;7.55;;
27833;SDS011;15200;50.570;7.244;2023-05-14T06:08:42;32.93;;;8.95;;
27833;SDS011;15200;50.570;7.244;2023-05-14T06:11:10;11.80;;;8.33;;
27833;SDS011;15200;50.570;7.244;2023-05-14T06:13:38;17.27;;;8.43;;
27833;SDS011;15200;50.570;7.244;2023-05-14T06:16:05;20.20;;;8.35;;
27833;SDS011;15200;50.570;7.244;2023-05-14T06:18:33;37.53;;;8.28;;
27833;SDS011;15200;50.570;7.244;2023-05-14T06:21:01;9.68;;;7.85;;
27833;SDS011;15200;50.570;7.244;2023-05-14T06:23:29;12.90;;;7.83;;
27833;SDS011;15200;50.570;7.244;2023-05-14T06:25:56;7.83;;;6.97;;
27833;SDS011;15200;50.570;7.244;2023-05-14T06:28:24;12.60;;;8.20;;
27833;SDS011;15200;50.570;7.244;2023-05-14T06:30:51;16.55;;;9.30;;
27833;SDS011;15200;50.570;7.244;2023-05-14T06:33:19;18.15;;;9.08;;
27833;SDS011;15200;50.570;7.244;2023-05-14T06:35:49;10.88;;;8.50;;
27833;SDS011;15200;50.570;7.244;2023-05-14T06:38:16;10.53;;;7.70;;
27833;SDS011;15200;50.570;7.244;2023-05-14T06:40:44;11.22;;;8.78;;
27833;SDS011;15200;50.570;7.244;2023-05-14T06:43:12;12.93;;;9.53;;
27833;SDS011;15200;50.570;7.244;2023-05-14T06:45:39;12.00;;;8.73;;
27833;SDS011;15200;50.570;7.244;2023-05-14T06:48:07;11.57;;;7.80;;
27833;SDS011;15200;50.570;7.244;2023-05-14T06:50:35;13.13;;;8.48;;
27833;SDS011;15200;50.570;7.244;2023-05-14T06:53:03;10.45;;;8.45;;
27833;SDS011;15200;50.570;7.244;2023-05-14T06:55:33;8.60;;;7.70;;
27833;SDS011;15200;50.570;7.244;2023-05-14T06:58:02;12.00;;;8.73;;
27833;SDS011;15200;50.570;7.244;2023-05-14T07:00:29;13.62;;;10.68;;
27833;SDS011;15200;50.570;7.244;2023-05-14T07:02:58;15.83;;;11.40;;
27833;SDS011;15200;50.570;7.244;2023-05-14T07:05:26;18.77;;;13.15;;
27833;SDS011;15200;50.570;7.244;2023-05-14T07:07:55;19.05;;;12.73;;
27833;SDS011;15200;50.570;7.244;2023-05-14T07:10:26;17.12;;;11.73;;
27833;SDS011;15200;50.570;7.244;2023-05-14T07:12:53;14.58;;;11.33;;
27833;SDS011;15200;50.570;7.244;2023-05-14T07:15:23;16.07;;;11.48;;
27833;SDS011;15200;50.570;7.244;2023-05-14T07:17:53;15.85;;;10.18;;
27833;SDS011;15200;50.570;7.244;2023-05-14T07:20:22;15.58;;;10.30;;
27833;SDS011;15200;50.570;7.244;2023-05-14T07:22:51;13.72;;;9.20;;
27833;SDS011;15200;50.570;7.244;2023-05-14T07:25:22;9.43;;;8.05;;
27833;SDS011;15200;50.570;7.244;2023-05-14T07:27:50;11.95;;;8.18;;
27833;SDS011;15200;50.570;7.244;2023-05-14T07:30:18;9.58;;;7.25;;
27833;SDS011;15200;50.570;7.244;2023-05-14T07:32:46;9.83;;;7.78;;
27833;SDS011;15200;50.570;7.244;2023-05-14T07:35:15;12.43;;;7.60;;
27833;SDS011;15200;50.570;7.244;2023-05-14T07:37:42;8.73;;;7.83;;
27833;SDS011;15200;50.570;7.244;2023-05-14T07:40:14;10.18;;;7.15;;
27833;SDS011;15200;50.570;7.244;2023-05-14T07:42:43;12.93;;;7.33;;
27833;SDS011;15200;50.570;7.244;2023-05-14T07:45:11;8.25;;;7.42;;
27833;SDS011;15200;50.570;7.244;2023-05-14T07:47:39;7.80;;;6.83;;
27833;SDS011;15200;50.570;7.244;2023-05-14T07:50:09;7.17;;;6.47;;
27833;SDS011;15200;50.570;7.244;2023-05-14T07:52:38;9.73;;;7.28;;
27833;SDS011;15200;50.570;7.244;2023-05-14T07:55:08;11.68;;;7.25;;
27833;SDS011;15200;50.570;7.244;2023-05-14T07:57:36;7.87;;;7.10;;
27833;SDS011;15200;50.570;7.244;2023-05-14T08:00:05;7.60;;;6.80;;
27833;SDS011;15200;50.570;7.244;2023-05-14T08:02:36;7.53;;;6.35;;
27833;SDS011;15200;50.570;7.244;2023-05-14T08:05:06;9.38;;;6.33;;
27833;SDS011;15200;50.570;7.244;2023-05-14T08:07:35;7.25;;;6.50;;
27833;SDS011;15200;50.570;7.244;2023-05-14T08:10:03;7.47;;;5.90;;
27833;SDS011;15200;50.570;7.244;2023-05-14T08:12:33;7.03;;;6.22;;
27833;SDS011;15200;50.570;7.244;2023-05-14T08:15:03;9.58;;;6.42;;
27833;SDS011;15200;50.570;7.244;2023-05-14T08:17:32;8.88;;;6.33;;
27833;SDS011;15200;50.570;7.244;2023-05-14T08:20:02;6.70;;;6.00;;
27833;SDS011;15200;50.570;7.244;2023-05-14T08:22:31;6.03;;;5.30;;
27833;SDS011;15200;50.570;7.244;2023-05-14T08:24:59;6.28;;;5.25;;
27833;SDS011;15200;50.570;7.244;2023-05-14T08:27:28;5.45;;;4.95;;
27833;SDS011;15200;50.570;7.244;2023-05-14T08:29:56;7.33;;;5.10;;
27833;SDS011;15200;50.570;7.244;2023-05-14T08:32:26;8.58;;;5.37;;
27833;SDS011;15200;50.570;7.244;2023-05-14T08:34:53;9.63;;;5.05;;
27833;SDS011;15200;50.570;7.244;2023-05-14T08:37:23;6.72;;;5.25;;
27833;SDS011;15200;50.570;7.244;2023-05-14T08:39:50;5.47;;;4.62;;
27833;SDS011;15200;50.570;7.244;2023-05-14T08:42:20;4.83;;;4.40;;
27833;SDS011;15200;50.570;7.244;2023-05-14T08:44:57;4.60;;;4.20;;
27833;SDS011;15200;50.570;7.244;2023-05-14T08:47:25;4.47;;;4.08;;
27833;SDS011;15200;50.570;7.244;2023-05-14T08:49:58;5.67;;;4.25;;
27833;SDS011;15200;50.570;7.244;2023-05-14T08:52:24;8.10;;;4.60;;
27833;SDS011;15200;50.570;7.244;2023-05-14T08:54:54;4.78;;;4.35;;
27833;SDS011;15200;50.570;7.244;2023-05-14T08:57:24;4.85;;;4.28;;
27833;SDS011;15200;50.570;7.244;2023-05-14T08:59:52;4.22;;;3.83;;
27833;SDS011;15200;50.570;7.244;2023-05-14T09:02:24;4.00;;;3.70;;
27833;SDS011;15200;50.570;7.244;2023-05-14T09:04:56;6.53;;;4.03;;
27833;SDS011;15200;50.570;7.244;2023-05-14T09:07:26;5.78;;;3.83;;
27833;SDS011;15200;50.570;7.244;2023-05-14T09:09:55;7.08;;;3.87;;
27833;SDS011;15200;50.570;7.244;2023-05-14T09:12:24;5.12;;;3.85;;
27833;SDS011;15200;50.570;7.244;2023-05-14T09:14:52;3.95;;;3.12;;
27833;SDS011;15200;50.570;7.244;2023-05-14T09:17:21;4.40;;;3.70;;
27833;SDS011;15200;50.570;7.244;2023-05-14T09:19:51;4.25;;;3.55;;
27833;SDS011;15200;50.570;7.244;2023-05-14T09:22:18;5.87;;;3.90;;
27833;SDS011;15200;50.570;7.244;2023-05-14T09:25:05;3.85;;;3.45;;
27833;SDS011;15200;50.570;7.244;2023-05-14T09:27:30;6.25;;;3.65;;
27833;SDS011;15200;50.570;7.244;2023-05-14T09:30:07;4.12;;;3.72;;
27833;SDS011;15200;50.570;7.244;2023-05-14T09:32:36;6.95;;;3.95;;
27833;SDS011;15200;50.570;7.244;2023-05-14T09:35:15;4.03;;;3.62;;
27833;SDS011;15200;50.570;7.244;2023-05-14T09:37:42;5.55;;;3.55;;
27833;SDS011;15200;50.570;7.244;2023-05-14T09:40:13;4.15;;;3.40;;
27833;SDS011;15200;50.570;7.244;2023-05-14T09:42:42;5.00;;;3.77;;
27833;SDS011;15200;50.570;7.244;2023-05-14T09:45:11;5.53;;;3.05;;
27833;SDS011;15200;50.570;7.244;2023-05-14T09:47:40;5.15;;;3.58;;
27833;SDS011;15200;50.570;7.244;2023-05-14T09:50:09;5.92;;;3.95;;
27833;SDS011;15200;50.570;7.244;2023-05-14T09:52:36;3.77;;;3.45;;
27833;SDS011;15200;50.570;7.244;2023-05-14T09:55:06;4.60;;;3.67;;
27833;SDS011;15200;50.570;7.244;2023-05-14T09:57:35;5.15;;;3.95;;
27833;SDS011;15200;50.570;7.244;2023-05-14T10:00:04;4.20;;;3.80;;
27833;SDS011;15200;50.570;7.244;2023-05-14T10:02:34;5.28;;;3.52;;
27833;SDS011;15200;50.570;7.244;2023-05-14T10:05:04;3.83;;;3.47;;
27833;SDS011;15200;50.570;7.244;2023-05-14T10:07:38;4.42;;;3.33;;
27833;SDS011;15200;50.570;7.244;2023-05-14T10:10:05;3.52;;;3.22;;
27833;SDS011;15200;50.570;7.244;2023-05-14T10:12:33;3.55;;;3.00;;
27833;SDS011;15200;50.570;7.244;2023-05-14T10:15:11;3.40;;;3.10;;
27833;SDS011;15200;50.570;7.244;2023-05-14T10:17:39;3.72;;;3.20;;
27833;SDS011;15200;50.570;7.244;2023-05-14T10:20:10;4.42;;;2.87;;
27833;SDS011;15200;50.570;7.244;2023-05-14T10:22:39;3.95;;;3.20;;
27833;SDS011;15200;50.570;7.244;2023-05-14T10:25:08;5.87;;;2.98;;
27833;SDS011;15200;50.570;7.244;2023-05-14T10:27:38;4.55;;;3.20;;
27833;SDS011;15200;50.570;7.244;2023-05-14T10:30:13;3.27;;;2.98;;
27833;SDS011;15200;50.570;7.244;2023-05-14T10:32:39;3.50;;;3.20;;
27833;SDS011;15200;50.570;7.244;2023-05-14T10:35:16;3.20;;;2.87;;
27833;SDS011;15200;50.570;7.244;2023-05-14T10:37:45;5.70;;;3.20;;
27833;SDS011;15200;50.570;7.244;2023-05-14T10:40:17;3.50;;;3.20;;
27833;SDS011;15200;50.570;7.244;2023-05-14T10:42:45;3.67;;;3.12;;
27833;SDS011;15200;50.570;7.244;2023-05-14T10:45:14;3.33;;;3.02;;
27833;SDS011;15200;50.570;7.244;2023-05-14T10:47:48;3.37;;;3.08;;
27833;SDS011;15200;50.570;7.244;2023-05-14T10:50:14;4.40;;;3.30;;
27833;SDS011;15200;50.570;7.244;2023-05-14T10:52:43;3.00;;;2.70;;
27833;SDS011;15200;50.570;7.244;2023-05-14T10:55:14;5.60;;;3.10;;
27833;SDS011;15200;50.570;7.244;2023-05-14T10:57:44;5.40;;;2.80;;
27833;SDS011;15200;50.570;7.244;2023-05-14T11:00:14;3.65;;;2.80;;
27833;SDS011;15200;50.570;7.244;2023-05-14T11:02:43;4.28;;;2.67;;
27833;SDS011;15200;50.570;7.244;2023-05-14T11:05:17;3.58;;;2.70;;
27833;SDS011;15200;50.570;7.244;2023-05-14T11:07:43;4.12;;;2.40;;
27833;SDS011;15200;50.570;7.244;2023-05-14T11:10:12;2.00;;;1.90;;
27833;SDS011;15200;50.570;7.244;2023-05-14T11:12:42;2.25;;;2.15;;
27833;SDS011;15200;50.570;7.244;2023-05-14T11:15:12;2.50;;;2.30;;
27833;SDS011;15200;50.570;7.244;2023-05-14T11:17:43;2.52;;;2.33;;
27833;SDS011;15200;50.570;7.244;2023-05-14T11:20:12;3.72;;;2.17;;
27833;SDS011;15200;50.570;7.244;2023-05-14T11:22:42;3.08;;;2.42;;
27833;SDS011;15200;50.570;7.244;2023-05-14T11:25:12;2.72;;;2.20;;
27833;SDS011;15200;50.570;7.244;2023-05-14T11:27:42;2.55;;;2.20;;
27833;SDS011;15200;50.570;7.244;2023-05-14T11:30:14;2.17;;;1.98;;
27833;SDS011;15200;50.570;7.244;2023-05-14T11:32:46;1.90;;;1.77;;
27833;SDS011;15200;50.570;7.244;2023-05-14T11:35:15;2.77;;;2.30;;
27833;SDS011;15200;50.570;7.244;2023-05-14T11:37:48;2.33;;;2.12;;
27833;SDS011;15200;50.570;7.244;2023-05-14T11:40:13;6.83;;;2.50;;
27833;SDS011;15200;50.570;7.244;2023-05-14T11:42:42;3.42;;;2.10;;
27833;SDS011;15200;50.570;7.244;2023-05-14T11:45:12;3.12;;;2.27;;
27833;SDS011;15200;50.570;7.244;2023-05-14T11:47:40;3.08;;;2.00;;
27833;SDS011;15200;50.570;7.244;2023-05-14T11:50:12;2.98;;;2.30;;
27833;SDS011;15200;50.570;7.244;2023-05-14T11:52:39;4.97;;;2.35;;
27833;SDS011;15200;50.570;7.244;2023-05-14T11:55:11;3.60;;;2.02;;
27833;SDS011;15200;50.570;7.244;2023-05-14T11:57:41;2.25;;;1.92;;
27833;SDS011;15200;50.570;7.244;2023-05-14T12:00:10;2.75;;;2.00;;
27833;SDS011;15200;50.570;7.244;2023-05-14T12:02:43;2.17;;;1.98;;
27833;SDS011;15200;50.570;7.244;2023-05-14T12:05:11;1.77;;;1.60;;
27833;SDS011;15200;50.570;7.244;2023-05-14T12:07:43;2.08;;;1.87;;
27833;SDS011;15200;50.570;7.244;2023-05-14T12:10:10;1.70;;;1.52;;
27833;SDS011;15200;50.570;7.244;2023-05-14T12:12:39;2.62;;;1.98;;
27833;SDS011;15200;50.570;7.244;2023-05-14T12:15:11;2.62;;;1.80;;
27833;SDS011;15200;50.570;7.244;2023-05-14T12:17:48;2.62;;;2.17;;
27833;SDS011;15200;50.570;7.244;2023-05-14T12:20:12;4.42;;;2.10;;
27833;SDS011;15200;50.570;7.244;2023-05-14T12:22:42;3.95;;;2.20;;
27833;SDS011;15200;50.570;7.244;2023-05-14T12:25:10;3.20;;;2.37;;
27833;SDS011;15200;50.570;7.244;2023-05-14T12:27:42;3.20;;;2.42;;
27833;SDS011;15200;50.570;7.244;2023-05-14T12:30:11;2.05;;;1.95;;
27833;SDS011;15200;50.570;7.244;2023-05-14T12:32:40;4.28;;;2.33;;
27833;SDS011;15200;50.570;7.244;2023-05-14T12:35:10;2.85;;;2.58;;
27833;SDS011;15200;50.570;7.244;2023-05-14T12:37:38;3.62;;;2.67;;
27833;SDS011;15200;50.570;7.244;2023-05-14T12:40:08;6.20;;;2.10;;
27833;SDS011;15200;50.570;7.244;2023-05-14T12:42:36;2.10;;;2.00;;
27833;SDS011;15200;50.570;7.244;2023-05-14T12:45:06;6.25;;;2.25;;
27833;SDS011;15200;50.570;7.244;2023-05-14T12:47:36;5.20;;;2.37;;
27833;SDS011;15200;50.570;7.244;2023-05-14T12:50:05;2.62;;;1.85;;
27833;SDS011;15200;50.570;7.244;2023-05-14T12:52:36;4.67;;;2.17;;
27833;SDS011;15200;50.570;7.244;2023-05-14T12:55:04;5.20;;;2.27;;
27833;SDS011;15200;50.570;7.244;2023-05-14T12:57:33;3.30;;;2.60;;
27833;SDS011;15200;50.570;7.244;2023-05-14T13:00:00;4.35;;;2.35;;
27833;SDS011;15200;50.570;7.244;2023-05-14T13:02:31;4.75;;;2.60;;
27833;SDS011;15200;50.570;7.244;2023-05-14T13:05:00;3.47;;;2.37;;
27833;SDS011;15200;50.570;7.244;2023-05-14T13:07:32;5.37;;;2.30;;
27833;SDS011;15200;50.570;7.244;2023-05-14T13:10:01;3.17;;;2.60;;
27833;SDS011;15200;50.570;7.244;2023-05-14T13:12:30;5.15;;;2.35;;
27833;SDS011;15200;50.570;7.244;2023-05-14T13:14:59;4.58;;;2.65;;
27833;SDS011;15200;50.570;7.244;2023-05-14T13:17:28;5.42;;;2.70;;
27833;SDS011;15200;50.570;7.244;2023-05-14T13:19:56;3.10;;;2.45;;
27833;SDS011;15200;50.570;7.244;2023-05-14T13:22:24;3.75;;;2.77;;
27833;SDS011;15200;50.570;7.244;2023-05-14T13:24:53;4.03;;;2.80;;
27833;SDS011;15200;50.570;7.244;2023-05-14T13:27:22;4.35;;;2.70;;
27833;SDS011;15200;50.570;7.244;2023-05-14T13:29:50;3.30;;;2.72;;
27833;SDS011;15200;50.570;7.244;2023-05-14T13:32:18;7.00;;;2.55;;
27833;SDS011;15200;50.570;7.244;2023-05-14T13:34:48;3.20;;;2.27;;
27833;SDS011;15200;50.570;7.244;2023-05-14T13:37:16;3.77;;;2.25;;
27833;SDS011;15200;50.570;7.244;2023-05-14T13:39:47;3.40;;;2.80;;
27833;SDS011;15200;50.570;7.244;2023-05-14T13:42:15;3.20;;;2.90;;
27833;SDS011;15200;50.570;7.244;2023-05-14T13:44:44;5.28;;;2.75;;
27833;SDS011;15200;50.570;7.244;2023-05-14T13:47:13;3.55;;;2.77;;
27833;SDS011;15200;50.570;7.244;2023-05-14T13:49:41;4.08;;;3.08;;
27833;SDS011;15200;50.570;7.244;2023-05-14T13:52:10;2.95;;;2.40;;
27833;SDS011;15200;50.570;7.244;2023-05-14T13:54:38;2.85;;;2.50;;
27833;SDS011;15200;50.570;7.244;2023-05-14T13:57:08;4.12;;;2.40;;
27833;SDS011;15200;50.570;7.244;2023-05-14T13:59:35;4.62;;;2.70;;
27833;SDS011;15200;50.570;7.244;2023-05-14T14:02:04;4.58;;;2.22;;
27833;SDS011;15200;50.570;7.244;2023-05-14T14:04:35;6.33;;;2.90;;
27833;SDS011;15200;50.570;7.244;2023-05-14T14:07:02;4.97;;;2.85;;
27833;SDS011;15200;50.570;7.244;2023-05-14T14:09:34;5.03;;;2.87;;
27833;SDS011;15200;50.570;7.244;2023-05-14T14:12:04;2.83;;;2.58;;
27833;SDS011;15200;50.570;7.244;2023-05-14T14:14:32;2.98;;;2.60;;
27833;SDS011;15200;50.570;7.244;2023-05-14T14:17:03;2.33;;;2.12;;
27833;SDS011;15200;50.570;7.244;2023-05-14T14:19:31;4.53;;;2.20;;
27833;SDS011;15200;50.570;7.244;2023-05-14T14:22:03;3.65;;;2.17;;
27833;SDS011;15200;50.570;7.244;2023-05-14T14:24:30;5.03;;;2.33;;
27833;SDS011;15200;50.570;7.244;2023-05-14T14:27:02;2.55;;;2.30;;
27833;SDS011;15200;50.570;7.244;2023-05-14T14:29:32;4.10;;;2.17;;
27833;SDS011;15200;50.570;7.244;2023-05-14T14:32:00;6.55;;;2.47;;
27833;SDS011;15200;50.570;7.244;2023-05-14T14:34:28;4.50;;;2.27;;
27833;SDS011;15200;50.570;7.244;2023-05-14T14:36:57;4.25;;;2.22;;
27833;SDS011;15200;50.570;7.244;2023-05-14T14:39:25;3.08;;;1.95;;
27833;SDS011;15200;50.570;7.244;2023-05-14T14:41:54;4.28;;;1.98;;
27833;SDS011;15200;50.570;7.244;2023-05-14T14:44:22;1.92;;;1.82;;
27833;SDS011;15200;50.570;7.244;2023-05-14T14:46:52;2.37;;;1.90;;
27833;SDS011;15200;50.570;7.244;2023-05-14T14:49:19;6.22;;;2.12;;
27833;SDS011;15200;50.570;7.244;2023-05-14T14:51:48;4.47;;;2.50;;